createdAt,value
2022-09-24T00:02:18.366Z,61.20
2022-09-24T00:05:20.568Z,61.30
2022-09-24T00:08:22.682Z,61.90
2022-09-24T00:11:28.848Z,61.20
2022-09-24T00:14:30.960Z,61.20
2022-09-24T00:17:33.101Z,61.20
2022-09-24T00:20:48.283Z,61.20
2022-09-24T00:23:54.794Z,61.20
2022-09-24T00:27:06.611Z,61.20
2022-09-24T00:30:09.139Z,61.20
2022-09-24T00:33:11.913Z,61.20
2022-09-24T00:36:15.038Z,61.20
2022-09-24T00:39:17.382Z,61.20
2022-09-24T00:42:20.865Z,61.20
2022-09-24T00:45:24.356Z,61.20
2022-09-24T00:48:26.466Z,61.20
2022-09-24T00:51:33.259Z,61.30
2022-09-24T00:54:36.113Z,61.20
2022-09-24T00:57:40.014Z,61.30
2022-09-24T01:00:46.092Z,61.30
2022-09-24T01:03:50.828Z,61.20
2022-09-24T01:06:53.568Z,61.20
2022-09-24T01:09:56.253Z,61.30
2022-09-24T01:13:22.253Z,61.20
2022-09-24T01:16:53.196Z,61.30
2022-09-24T01:20:04.452Z,61.30
2022-09-24T01:23:12.604Z,61.30
2022-09-24T01:26:38.577Z,61.30
2022-09-24T01:29:59.997Z,61.30
2022-09-24T01:33:08.978Z,61.40
2022-09-24T01:36:13.101Z,61.30
2022-09-24T01:39:15.368Z,61.40
2022-09-24T01:42:20.280Z,61.30
2022-09-24T01:45:23.096Z,61.40
2022-09-24T01:48:26.438Z,61.50
2022-09-24T01:51:34.942Z,61.50
2022-09-24T01:54:43.134Z,61.40
2022-09-24T01:58:05.030Z,61.40
2022-09-24T02:01:14.169Z,61.50
2022-09-24T02:04:19.703Z,61.50
2022-09-24T02:07:33.689Z,61.50
2022-09-24T02:10:48.316Z,61.50
2022-09-24T02:14:14.599Z,61.50
2022-09-24T02:17:17.688Z,61.60
2022-09-24T02:20:22.721Z,61.50
2022-09-24T02:23:28.447Z,61.60
2022-09-24T02:26:30.661Z,62.30
2022-09-24T02:29:32.820Z,61.70
2022-09-24T02:32:36.934Z,61.70
2022-09-24T02:35:40.887Z,61.70
2022-09-24T02:42:15.916Z,61.70
2022-09-24T02:45:18.068Z,61.70
2022-09-24T02:48:20.199Z,61.70
2022-09-24T02:51:22.494Z,61.60
2022-09-24T02:54:25.326Z,61.60
2022-09-24T02:57:27.493Z,61.60
2022-09-24T03:00:29.591Z,61.70
2022-09-24T03:03:32.501Z,61.70
2022-09-24T03:06:34.761Z,61.70
2022-09-24T03:09:36.910Z,61.80
2022-09-24T03:12:39.258Z,61.80
2022-09-24T03:15:41.376Z,61.90
2022-09-24T03:18:44.361Z,61.90
2022-09-24T03:21:46.644Z,61.90
2022-09-24T03:24:48.783Z,61.90
2022-09-24T03:27:50.921Z,62.00
2022-09-24T03:34:31.041Z,62.00
2022-09-24T03:37:37.189Z,62.00
2022-09-24T03:40:39.518Z,62.10
2022-09-24T03:43:56.569Z,62.20
2022-09-24T03:50:39.467Z,62.10
2022-09-24T03:53:41.883Z,62.10
2022-09-24T03:56:44.124Z,62.10
2022-09-24T03:59:47.449Z,62.10
2022-09-24T04:02:50.222Z,62.10
2022-09-24T04:05:52.543Z,62.10
2022-09-24T04:08:55.757Z,62.20
2022-09-24T04:11:59.205Z,62.10
2022-09-24T04:15:02.682Z,62.20
2022-09-24T04:21:40.561Z,62.20
2022-09-24T04:24:42.606Z,62.20
2022-09-24T04:27:45.270Z,62.30
2022-09-24T04:30:47.455Z,62.20
2022-09-24T04:33:49.603Z,62.30
2022-09-24T04:36:52.257Z,62.20
2022-09-24T04:39:54.390Z,62.20
2022-09-24T04:42:56.837Z,62.20
2022-09-24T04:45:59.551Z,62.20
2022-09-24T04:49:01.824Z,62.10
2022-09-24T04:55:41.816Z,62.20
2022-09-24T04:58:44.845Z,62.20
2022-09-24T05:01:47.392Z,62.30
2022-09-24T05:04:49.595Z,62.30
2022-09-24T05:07:51.994Z,62.40
2022-09-24T05:14:32.186Z,62.50
2022-09-24T05:28:43.128Z,62.60
2022-09-24T05:31:45.647Z,62.60
2022-09-24T05:34:47.942Z,62.70
2022-09-24T05:37:53.404Z,62.80
2022-09-24T05:41:08.649Z,62.80
2022-09-24T05:47:55.322Z,62.90
2022-09-24T05:50:57.576Z,62.80
2022-09-24T06:01:30.500Z,63.00
2022-09-24T06:11:57.181Z,63.10
2022-09-24T06:18:45.023Z,63.20
2022-09-24T06:21:48.216Z,63.10
2022-09-24T06:28:35.620Z,63.10
2022-09-24T06:31:37.899Z,63.10
2022-09-24T06:34:40.110Z,63.30
2022-09-24T06:37:42.234Z,63.20
2022-09-24T06:40:45.934Z,63.20
2022-09-24T06:43:48.139Z,63.40
2022-09-24T06:46:51.204Z,63.40
2022-09-24T06:49:53.398Z,63.30
2022-09-24T06:52:56.474Z,63.50
2022-09-24T06:55:59.846Z,63.50
2022-09-24T06:59:02.145Z,63.50
2022-09-24T07:02:04.391Z,63.70
2022-09-24T07:05:07.933Z,63.70
2022-09-24T07:08:10.199Z,63.70
2022-09-24T07:11:13.876Z,63.90
2022-09-24T07:14:16.103Z,63.90
2022-09-24T07:17:18.324Z,63.90
2022-09-24T07:20:20.820Z,63.90
2022-09-24T07:23:23.732Z,64.00
2022-09-24T07:26:25.924Z,64.00
2022-09-24T07:29:28.226Z,64.10
2022-09-24T07:32:31.016Z,64.20
2022-09-24T07:35:34.495Z,64.10
2022-09-24T07:38:37.321Z,64.00
2022-09-24T07:41:42.532Z,64.10
2022-09-24T07:44:45.617Z,64.10
2022-09-24T07:48:07.705Z,64.10
2022-09-24T07:51:13.297Z,64.10
2022-09-24T07:54:17.422Z,64.20
2022-09-24T07:57:20.328Z,64.10
2022-09-24T08:00:24.408Z,64.20
2022-09-24T08:07:03.376Z,64.10
2022-09-24T08:10:06.404Z,64.10
2022-09-24T08:13:08.935Z,64.20
2022-09-24T08:16:11.357Z,64.40
2022-09-24T08:19:14.373Z,64.20
2022-09-24T08:22:16.639Z,64.10
2022-09-24T08:25:19.002Z,64.10
2022-09-24T08:28:21.179Z,64.10
2022-09-24T08:31:23.562Z,64.10
2022-09-24T08:34:25.789Z,64.20
2022-09-24T08:37:29.300Z,64.10
2022-09-24T08:40:39.076Z,64.30
2022-09-24T08:43:56.571Z,64.20
2022-09-24T08:47:22.017Z,64.30
2022-09-24T08:50:36.372Z,64.10
2022-09-24T08:53:45.337Z,64.20
2022-09-24T08:56:47.632Z,64.20
2022-09-24T08:59:53.387Z,64.30
2022-09-24T09:03:11.814Z,64.30
2022-09-24T09:06:39.937Z,64.30
2022-09-24T09:10:19.077Z,64.30
2022-09-24T09:14:01.581Z,64.30
2022-09-24T09:17:10.159Z,64.30
2022-09-24T09:20:20.043Z,64.30
2022-09-24T09:23:30.282Z,64.30
2022-09-24T09:26:35.119Z,64.30
2022-09-24T09:29:37.502Z,64.30
2022-09-24T09:32:49.137Z,64.30
2022-09-24T09:36:17.281Z,64.40
2022-09-24T09:39:37.940Z,64.40
2022-09-24T09:42:40.668Z,64.30
2022-09-24T09:46:16.094Z,64.40
2022-09-24T09:49:18.503Z,64.40
2022-09-24T09:52:24.922Z,64.30
2022-09-24T09:55:37.459Z,64.40
2022-09-24T10:02:28.389Z,64.40
2022-09-24T10:05:30.891Z,64.50
2022-09-24T10:08:33.153Z,64.50
2022-09-24T10:11:37.626Z,64.70
2022-09-24T10:14:39.852Z,64.50
2022-09-24T10:17:44.335Z,64.60
2022-09-24T10:20:51.145Z,64.60
2022-09-24T10:24:00.363Z,65.00
2022-09-24T10:27:12.102Z,64.60
2022-09-24T10:30:35.372Z,64.60
2022-09-24T10:33:39.754Z,64.60
2022-09-24T10:36:51.734Z,64.60
2022-09-24T10:40:14.001Z,64.60
2022-09-24T10:43:19.304Z,64.60
2022-09-24T10:46:35.662Z,64.80
2022-09-24T10:49:59.711Z,64.80
2022-09-24T10:53:13.577Z,64.80
2022-09-24T10:56:38.206Z,64.80
2022-09-24T10:59:51.682Z,64.80
2022-09-24T11:03:09.394Z,64.70
2022-09-24T11:06:26.677Z,64.90
2022-09-24T11:09:28.820Z,64.90
2022-09-24T11:13:07.541Z,65.00
2022-09-24T11:16:25.938Z,64.90
2022-09-24T11:19:39.759Z,65.00
2022-09-24T11:22:57.470Z,64.90
2022-09-24T11:26:03.670Z,64.90
2022-09-24T11:29:14.821Z,65.10
2022-09-24T11:32:19.833Z,64.90
2022-09-24T11:35:42.289Z,65.00
2022-09-24T11:39:11.521Z,65.00
2022-09-24T11:42:22.290Z,65.00
2022-09-24T11:45:51.343Z,65.10
2022-09-24T11:49:38.342Z,65.00
2022-09-24T11:52:56.054Z,64.90
2022-09-24T11:56:16.014Z,65.00
2022-09-24T11:59:29.966Z,65.10
2022-09-24T12:02:47.968Z,65.20
2022-09-24T12:06:07.241Z,65.30
2022-09-24T12:09:26.548Z,65.40
2022-09-24T12:12:35.071Z,65.60
2022-09-24T12:15:51.752Z,65.70
2022-09-24T12:19:21.470Z,65.60
2022-09-24T12:22:25.677Z,65.80
2022-09-24T12:25:33.126Z,65.70
2022-09-24T12:29:21.263Z,66.10
2022-09-24T12:32:53.730Z,66.20
2022-09-24T12:36:15.097Z,66.40
2022-09-24T12:39:20.241Z,66.20
2022-09-24T12:42:23.981Z,66.40
2022-09-24T12:45:27.280Z,66.50
2022-09-24T12:48:32.461Z,67.10
2022-09-24T12:51:37.850Z,66.40
2022-09-24T12:54:40.077Z,66.40
2022-09-24T12:58:04.217Z,66.40
2022-09-24T13:01:28.828Z,66.40
2022-09-24T13:04:31.119Z,66.40
2022-09-24T13:07:40.039Z,66.30
2022-09-24T13:11:06.024Z,66.40
2022-09-24T13:14:13.956Z,66.40
2022-09-24T13:17:18.532Z,66.50
2022-09-24T13:20:27.163Z,66.60
2022-09-24T13:23:33.855Z,66.60
2022-09-24T13:26:36.126Z,66.50
2022-09-24T13:29:40.280Z,66.50
2022-09-24T13:32:58.835Z,66.40
2022-09-24T13:36:17.543Z,66.50
2022-09-24T13:39:50.710Z,66.20
2022-09-24T13:43:11.960Z,66.40
2022-09-24T13:46:17.838Z,66.20
2022-09-24T13:49:23.138Z,66.20
2022-09-24T13:52:39.741Z,66.50
2022-09-24T13:55:47.875Z,66.50
2022-09-24T13:58:51.540Z,66.20
2022-09-24T14:01:53.944Z,66.20
2022-09-24T14:04:58.845Z,66.50
2022-09-24T14:08:08.863Z,66.20
2022-09-24T14:11:18.212Z,66.30
2022-09-24T14:14:23.484Z,66.30
2022-09-24T14:17:26.512Z,66.20
2022-09-24T14:20:33.770Z,66.20
2022-09-24T14:24:13.231Z,66.10
2022-09-24T14:27:19.657Z,66.20
2022-09-24T14:30:24.271Z,66.20
2022-09-24T14:33:31.551Z,66.10
2022-09-24T14:36:37.284Z,66.20
2022-09-24T14:39:46.092Z,66.20
2022-09-24T14:42:54.834Z,66.20
2022-09-24T14:46:28.178Z,66.20
2022-09-24T14:49:43.039Z,66.20
2022-09-24T14:52:56.918Z,66.20
2022-09-24T14:55:59.455Z,66.10
2022-09-24T14:59:01.655Z,66.10
2022-09-24T15:02:26.570Z,66.20
2022-09-24T15:05:29.937Z,66.20
2022-09-24T15:08:32.181Z,66.50
2022-09-24T15:11:43.654Z,66.30
2022-09-24T15:15:04.676Z,66.50
2022-09-24T15:18:17.271Z,66.50
2022-09-24T15:21:19.421Z,66.50
2022-09-24T15:24:22.257Z,66.80
2022-09-24T15:27:27.405Z,66.90
2022-09-24T15:30:29.536Z,66.90
2022-09-24T15:33:31.696Z,66.90
2022-09-24T15:36:34.137Z,66.80
2022-09-24T15:39:36.297Z,66.80
2022-09-24T15:42:38.404Z,66.90
2022-09-24T15:45:40.555Z,66.90
2022-09-24T15:48:44.286Z,67.20
2022-09-24T15:51:46.396Z,67.00
2022-09-24T15:54:48.531Z,67.10
2022-09-24T15:57:50.717Z,67.00
2022-09-24T16:00:53.498Z,67.00
2022-09-24T16:03:55.638Z,67.00
2022-09-24T16:06:57.929Z,67.10
2022-09-24T16:10:00.063Z,67.40
2022-09-24T16:13:02.810Z,67.30
2022-09-24T16:16:07.717Z,68.00
2022-09-24T16:19:10.040Z,67.50
2022-09-24T16:22:14.783Z,67.30
2022-09-24T16:25:19.109Z,67.30
2022-09-24T16:28:21.317Z,67.40
2022-09-24T16:31:23.937Z,67.50
2022-09-24T16:34:26.484Z,67.70
2022-09-24T16:37:28.660Z,67.50
2022-09-24T16:40:31.411Z,67.70
2022-09-24T16:43:34.134Z,68.00
2022-09-24T16:46:36.402Z,67.90
2022-09-24T16:49:38.497Z,67.90
2022-09-24T16:52:40.628Z,68.40
2022-09-24T16:55:42.793Z,67.80
2022-09-24T16:58:46.900Z,67.90
2022-09-24T17:01:49.175Z,68.10
2022-09-24T17:04:53.665Z,68.10
2022-09-24T17:07:55.825Z,68.30
2022-09-24T17:11:00.650Z,68.20
2022-09-24T17:14:03.149Z,68.20
2022-09-24T17:17:05.841Z,68.30
2022-09-24T17:20:09.482Z,68.20
2022-09-24T17:23:11.558Z,68.50
2022-09-24T17:26:16.869Z,68.40
2022-09-24T17:29:20.896Z,68.50
2022-09-24T17:32:23.284Z,68.50
2022-09-24T17:35:25.418Z,68.80
2022-09-24T17:38:30.594Z,68.80
2022-09-24T17:41:33.925Z,68.80
2022-09-24T17:44:37.152Z,68.80
2022-09-24T17:47:58.782Z,68.90
2022-09-24T17:51:07.659Z,69.00
2022-09-24T17:54:14.055Z,69.10
2022-09-24T17:57:16.650Z,69.10
2022-09-24T18:00:18.972Z,69.20
2022-09-24T18:03:24.050Z,69.20
2022-09-24T18:06:32.477Z,69.00
2022-09-24T18:09:35.166Z,69.30
2022-09-24T18:12:39.586Z,69.10
2022-09-24T18:15:42.473Z,69.30
2022-09-24T18:18:46.638Z,69.30
2022-09-24T18:21:51.511Z,69.50
2022-09-24T18:24:55.310Z,69.50
2022-09-24T18:28:02.597Z,69.50
2022-09-24T18:31:08.163Z,69.80
2022-09-24T18:34:14.154Z,69.80
2022-09-24T18:37:16.367Z,69.80
2022-09-24T18:40:22.002Z,69.90
2022-09-24T18:43:26.423Z,70.70
2022-09-24T18:46:30.956Z,70.00
2022-09-24T18:49:36.140Z,70.00
2022-09-24T18:52:40.246Z,69.90
2022-09-24T18:55:45.743Z,69.90
2022-09-24T18:58:48.240Z,70.00
2022-09-24T19:01:56.716Z,70.30
2022-09-24T19:05:00.043Z,70.40
2022-09-24T19:08:02.831Z,70.20
2022-09-24T19:11:11.130Z,70.40
2022-09-24T19:14:19.863Z,70.30
2022-09-24T19:17:24.362Z,70.20
2022-09-24T19:20:27.465Z,70.50
2022-09-24T19:23:29.872Z,70.60
2022-09-24T19:26:35.526Z,70.50
2022-09-24T19:29:41.180Z,70.80
2022-09-24T19:32:45.891Z,70.70
2022-09-24T19:36:03.711Z,70.80
2022-09-24T19:39:13.153Z,71.00
2022-09-24T19:42:16.137Z,71.10
2022-09-24T19:45:18.867Z,71.10
2022-09-24T19:48:24.136Z,70.90
2022-09-24T19:51:32.978Z,71.00
2022-09-24T19:54:36.569Z,71.20
2022-09-24T19:57:39.231Z,71.10
2022-09-24T20:00:43.229Z,71.10
2022-09-24T20:03:47.016Z,71.40
2022-09-24T20:06:49.139Z,71.60
2022-09-24T20:09:52.397Z,71.50
2022-09-24T20:12:56.344Z,71.50
2022-09-24T20:16:02.197Z,71.50
2022-09-24T20:19:09.342Z,71.50
2022-09-24T20:22:15.203Z,71.80
2022-09-24T20:25:19.593Z,71.80
2022-09-24T20:28:25.286Z,71.90
2022-09-24T20:31:28.724Z,71.90
2022-09-24T20:34:35.619Z,71.80
2022-09-24T20:37:38.445Z,72.10
2022-09-24T20:40:43.221Z,72.90
2022-09-24T20:43:46.401Z,72.20
2022-09-24T20:46:51.463Z,72.00
2022-09-24T20:49:59.339Z,72.30
2022-09-24T20:53:01.953Z,72.40
2022-09-24T20:56:06.012Z,72.50
2022-09-24T20:59:12.625Z,73.00
2022-09-24T21:02:16.842Z,72.60
2022-09-24T21:05:20.086Z,72.70
2022-09-24T21:08:23.470Z,72.70
2022-09-24T21:11:27.787Z,72.60
2022-09-24T21:14:32.281Z,72.60
2022-09-24T21:17:39.388Z,72.60
2022-09-24T21:20:45.149Z,72.90
2022-09-24T21:23:50.439Z,73.00
2022-09-24T21:26:55.369Z,72.90
2022-09-24T21:30:03.133Z,72.90
2022-09-24T21:33:05.587Z,72.90
2022-09-24T21:36:11.257Z,72.90
2022-09-24T21:39:26.864Z,72.90
2022-09-24T21:42:33.938Z,73.70
2022-09-24T21:45:39.372Z,73.00
2022-09-24T21:48:43.339Z,73.20
2022-09-24T21:51:47.409Z,73.20
2022-09-24T21:54:50.235Z,72.80
2022-09-24T21:57:53.039Z,73.30
2022-09-24T22:00:58.934Z,73.40
2022-09-24T22:04:07.478Z,73.50
2022-09-24T22:07:12.360Z,73.30
2022-09-24T22:10:16.052Z,73.40
2022-09-24T22:13:19.814Z,73.40
2022-09-24T22:16:22.859Z,73.40
2022-09-24T22:19:25.698Z,73.20
2022-09-24T22:22:29.474Z,73.70
2022-09-24T22:25:33.313Z,73.30
2022-09-24T22:28:38.090Z,73.30
2022-09-24T22:31:40.362Z,73.40
2022-09-24T22:35:01.598Z,73.40
2022-09-24T22:38:04.273Z,73.80
2022-09-24T22:41:08.804Z,73.90
2022-09-24T22:44:12.230Z,73.90
2022-09-24T22:47:17.180Z,73.80
2022-09-24T22:50:21.551Z,74.00
2022-09-24T22:53:25.512Z,74.20
2022-09-24T22:56:28.674Z,74.10
2022-09-24T22:59:31.246Z,74.20
2022-09-24T23:02:35.322Z,74.10
2022-09-24T23:05:37.470Z,74.40
2022-09-24T23:08:40.875Z,74.30
2022-09-24T23:11:43.046Z,74.40
2022-09-24T23:14:45.287Z,74.50
2022-09-24T23:17:47.874Z,74.60
2022-09-24T23:20:50.404Z,74.60
2022-09-24T23:23:57.258Z,74.60
2022-09-24T23:26:59.361Z,74.40
2022-09-24T23:30:01.583Z,74.50
2022-09-24T23:33:03.845Z,74.80
2022-09-24T23:36:07.528Z,74.70
2022-09-24T23:39:09.742Z,74.90
2022-09-24T23:42:12.009Z,74.90
2022-09-24T23:45:14.201Z,75.00
2022-09-24T23:48:16.567Z,75.10
2022-09-24T23:51:18.704Z,75.10
2022-09-24T23:54:21.119Z,75.00
2022-09-24T23:57:23.352Z,75.10
